Time;durP1;ratioP1;P1;durP2;ratioP2;P2;SDS_P1;SDS_P2;PMS_P1;PMS_P2;Temp;Humidity;BMP_temperature;BMP_pressure;BME280_temperature;BME280_humidity;BME280_pressure;Samples;Min_cycle;Max_cycle;Signal;HPM_P1;HPM_P2
2021/08/22 16:34:49;;;;;;;;;2.00;2.00;;;;;28.52;37.64;101712.78;5113387;27;45316;-80
2021/08/22 16:37:15;;;;;;;;;3.50;3.50;;;;;28.32;37.42;101719.31;5093835;27;45349;-78
2021/08/22 16:39:40;;;;;;;;;3.75;3.75;;;;;27.93;36.83;101726.91;5092722;27;45482;-78
2021/08/22 16:42:06;;;;;;;;;2.25;2.25;;;;;27.53;36.95;101727.41;5095741;27;45205;-80
2021/08/22 16:44:32;;;;;;;;;3.75;3.75;;;;;27.21;37.60;101724.19;5098943;27;45429;-79
2021/08/22 16:46:58;;;;;;;;;6.25;5.00;;;;;26.97;37.45;101726.19;5097805;27;45505;-79
2021/08/22 16:49:24;;;;;;;;;3.25;3.25;;;;;26.78;38.31;101737.88;5099145;27;45416;-81
2021/08/22 16:51:49;;;;;;;;;8.25;6.00;;;;;26.68;38.75;101721.06;5095361;27;45428;-85
2021/08/22 16:54:15;;;;;;;;;4.50;4.50;;;;;26.63;38.82;101721.13;5094188;27;45967;-80
2021/08/22 16:56:41;;;;;;;;;7.00;5.00;;;;;26.63;39.13;101714.91;5093815;27;45413;-81
2021/08/22 16:59:08;;;;;;;;;4.00;4.00;;;;;26.67;38.68;101724.63;5107812;27;45228;-81
2021/08/22 17:01:35;;;;;;;;;6.25;5.50;;;;;26.62;39.89;101727.31;5123977;27;45372;-83
2021/08/22 17:04:00;;;;;;;;;6.50;5.75;;;;;26.66;39.28;101730.81;5098451;27;46070;-83
2021/08/22 17:06:26;;;;;;;;;3.25;3.25;;;;;26.70;39.76;101733.44;5093562;27;45555;-81
2021/08/22 17:08:52;;;;;;;;;4.25;3.25;;;;;26.67;39.38;101733.44;5092423;27;45432;-83
2021/08/22 17:11:18;;;;;;;;;6.25;6.25;;;;;26.71;39.83;101735.22;5094005;27;45361;-82
2021/08/22 17:13:44;;;;;;;;;5.75;4.00;;;;;26.73;39.06;101740.50;5093783;27;46076;-88
2021/08/22 17:16:12;;;;;;;;;7.25;5.75;;;;;26.48;39.03;101745.13;5093907;27;45737;-83
2021/08/22 17:18:38;;;;;;;;;5.00;4.00;;;;;26.35;38.55;101742.53;5092077;27;45281;-79
2021/08/22 17:21:04;;;;;;;;;3.25;3.25;;;;;26.30;39.16;101741.69;5094632;27;45528;-81
2021/08/22 17:23:30;;;;;;;;;4.75;4.75;;;;;26.29;38.17;101757.66;5094964;27;45373;-81
2021/08/22 17:25:55;;;;;;;;;4.50;4.50;;;;;26.18;38.38;101755.94;5094478;27;45259;-83
2021/08/22 17:28:21;;;;;;;;;5.75;4.25;;;;;26.14;38.60;101745.31;5095335;27;45431;-86
2021/08/22 17:30:46;;;;;;;;;3.75;3.75;;;;;26.11;38.30;101768.34;5094551;27;45528;-81
2021/08/22 17:33:12;;;;;;;;;16.50;15.25;;;;;25.93;38.54;101761.31;5092792;27;45948;-81
2021/08/22 17:35:38;;;;;;;;;10.00;8.00;;;;;25.83;39.01;101754.28;5092663;27;45247;-80
2021/08/22 17:38:04;;;;;;;;;3.50;3.50;;;;;25.78;38.98;101753.41;5093264;27;45356;-80
2021/08/22 17:40:31;;;;;;;;;5.00;5.00;;;;;25.68;39.01;101759.63;5093177;27;45389;-79
2021/08/22 17:42:56;;;;;;;;;4.25;4.25;;;;;25.59;39.36;101765.84;5092577;27;45358;-79
2021/08/22 17:45:22;;;;;;;;;6.75;4.50;;;;;25.47;39.45;101772.97;5083241;27;45224;-78
2021/08/22 17:47:48;;;;;;;;;5.00;5.00;;;;;25.32;39.84;101763.19;5078570;28;45246;-79
2021/08/22 17:50:15;;;;;;;;;3.50;3.50;;;;;25.17;40.20;101765.88;5078048;27;45394;-79
2021/08/22 17:52:42;;;;;;;;;4.75;3.00;;;;;25.08;40.75;101779.16;5078539;27;46077;-78
2021/08/22 17:55:08;;;;;;;;;5.00;5.00;;;;;24.94;41.01;101777.38;5078368;27;45944;-79
2021/08/22 17:57:34;;;;;;;;;4.50;3.25;;;;;24.88;41.79;101780.91;5078641;27;45362;-84
2021/08/22 18:00:00;;;;;;;;;3.00;3.00;;;;;24.80;41.80;101771.16;5079065;27;45589;-81
2021/08/22 18:02:26;;;;;;;;;3.00;3.00;;;;;24.72;41.95;101782.66;5078063;27;45927;-82
2021/08/22 18:04:52;;;;;;;;;6.00;6.00;;;;;24.66;42.50;101787.91;5078453;28;45247;-80
2021/08/22 18:07:17;;;;;;;;;4.00;3.00;;;;;24.58;42.06;101790.53;5076754;28;45274;-79
2021/08/22 18:09:46;;;;;;;;;4.75;4.00;;;;;24.51;42.76;101798.47;5078798;28;45241;-85
2021/08/22 18:12:13;;;;;;;;;4.75;3.25;;;;;24.40;42.67;101801.09;5078536;27;46243;-80
2021/08/22 18:14:41;;;;;;;;;4.00;4.00;;;;;24.34;42.98;101801.06;5077878;27;45706;-79
2021/08/22 18:17:11;;;;;;;;;7.00;4.00;;;;;24.28;42.81;101809.84;5078888;28;45326;-80
2021/08/22 18:19:39;;;;;;;;;4.00;4.00;;;;;24.20;43.40;101799.22;5078658;27;45445;-82
2021/08/22 18:22:08;;;;;;;;;6.00;5.00;;;;;24.11;43.60;101802.75;5078444;27;45510;-82
2021/08/22 18:24:36;;;;;;;;;4.00;4.00;;;;;24.06;43.74;101800.97;5077974;28;45197;-82
2021/08/22 18:27:01;;;;;;;;;4.50;4.50;;;;;23.99;43.70;101817.66;5081475;27;45334;-82
2021/08/22 18:29:27;;;;;;;;;4.75;4.75;;;;;23.85;43.88;101817.56;5080769;27;45457;-83
2021/08/22 18:31:53;;;;;;;;;4.75;4.75;;;;;23.77;44.11;101825.44;5079768;28;45957;-83
2021/08/22 18:34:18;;;;;;;;;6.00;5.00;;;;;23.68;44.19;101821.00;5077843;27;45454;-83
2021/08/22 18:36:44;;;;;;;;;5.00;5.00;;;;;23.61;44.72;101819.16;5078302;27;45291;-83
2021/08/22 18:39:11;;;;;;;;;6.75;5.00;;;;;23.53;44.86;101826.16;5078629;27;45607;-79
2021/08/22 18:41:39;;;;;;;;;5.00;5.00;;;;;23.47;45.12;101824.38;5078199;27;45321;-79
2021/08/22 18:44:05;;;;;;;;;5.00;4.50;;;;;23.42;45.22;101837.53;5076851;28;45242;-79
2021/08/22 18:46:31;;;;;;;;;6.00;5.00;;;;;23.37;45.54;101828.72;5078322;28;45374;-80
2021/08/22 18:48:58;;;;;;;;;6.50;6.50;;;;;23.30;45.61;101824.22;5094666;27;45335;-81
2021/08/22 18:51:24;;;;;;;;;3.00;3.00;;;;;23.26;46.07;101827.75;5078009;27;46037;-80
2021/08/22 18:53:50;;;;;;;;;4.50;3.75;;;;;23.20;46.10;101836.50;5078133;27;45669;-84
2021/08/22 18:56:16;;;;;;;;;3.50;3.50;;;;;23.15;45.95;101839.06;5076442;27;45454;-80
2021/08/22 18:58:42;;;;;;;;;3.50;3.50;;;;;23.07;46.62;101840.72;5081490;27;45507;-83
2021/08/22 19:01:11;;;;;;;;;4.75;4.25;;;;;23.01;46.32;101843.31;5082522;27;45946;-83
2021/08/22 19:03:38;;;;;;;;;5.00;5.00;;;;;22.96;46.67;101847.66;5080182;27;45685;-84
2021/08/22 19:06:03;;;;;;;;;5.75;3.75;;;;;22.88;46.93;101852.91;5081103;27;45432;-81
2021/08/22 19:08:29;;;;;;;;;8.00;5.75;;;;;22.80;47.23;101846.63;5080753;27;45651;-80
2021/08/22 19:10:55;;;;;;;;;4.00;0.25;;;;;22.77;47.24;101855.41;5079640;27;45369;-80
2021/08/22 19:13:21;;;;;;;;;3.75;3.75;;;;;22.72;47.57;101859.75;5078233;27;45326;-79
2021/08/22 19:15:46;;;;;;;;;6.00;5.00;;;;;22.66;47.53;101857.94;5077766;27;45443;-80
2021/08/22 19:18:12;;;;;;;;;4.75;4.75;;;;;22.64;47.79;101864.03;5059662;28;45379;-78
2021/08/22 19:20:38;;;;;;;;;5.00;5.00;;;;;22.63;47.81;101872.84;5077379;27;45398;-81
2021/08/22 19:23:05;;;;;;;;;5.00;3.75;;;;;22.60;48.22;101878.97;5077834;28;45337;-81
2021/08/22 19:25:32;;;;;;;;;5.50;5.00;;;;;22.59;48.15;101886.88;5077507;27;45322;-82
2021/08/22 19:27:58;;;;;;;;;7.00;7.00;;;;;22.52;48.39;101888.56;5079198;27;45484;-80
2021/08/22 19:30:25;;;;;;;;;5.00;3.00;;;;;22.42;48.60;101906.00;5076995;27;45301;-84
2021/08/22 19:32:51;;;;;;;;;5.75;4.00;;;;;22.36;48.97;101900.63;5077867;27;45462;-80
2021/08/22 19:35:17;;;;;;;;;5.00;5.00;;;;;22.31;49.16;101904.94;5078443;27;45521;-79
2021/08/22 19:37:43;;;;;;;;;5.75;5.00;;;;;22.28;49.19;101905.81;5078736;27;45306;-80
2021/08/22 19:40:09;;;;;;;;;6.50;6.25;;;;;22.25;49.64;101918.94;5079509;27;46000;-83
2021/08/22 19:42:35;;;;;;;;;7.00;6.00;;;;;22.21;50.02;101922.41;5077303;27;45569;-84
2021/08/22 19:45:03;;;;;;;;;7.00;6.00;;;;;22.13;49.60;101929.34;5092947;27;45437;-79
2021/08/22 19:47:28;;;;;;;;;5.00;4.25;;;;;22.06;50.41;101934.50;5076699;28;45500;-80
2021/08/22 19:49:54;;;;;;;;;3.75;3.75;;;;;22.06;50.25;101941.53;5077838;27;45431;-78
2021/08/22 19:52:20;;;;;;;;;7.00;5.00;;;;;22.06;49.71;101944.19;5076648;27;45805;-79
2021/08/22 19:54:46;;;;;;;;;6.25;5.00;;;;;22.02;50.35;101945.88;5076959;27;45374;-79
2021/08/22 19:57:11;;;;;;;;;5.25;4.25;;;;;22.01;49.97;101952.03;5077026;27;45384;-80
2021/08/22 19:59:37;;;;;;;;;6.25;4.75;;;;;21.95;50.35;101951.91;5076668;27;45359;-79
2021/08/22 20:02:03;;;;;;;;;10.75;7.25;;;;;21.92;50.45;101954.53;5076513;28;45359;-79
2021/08/22 20:04:28;;;;;;;;;6.00;5.00;;;;;21.92;50.55;101958.03;5076288;27;45487;-78
2021/08/22 20:06:55;;;;;;;;;4.00;4.00;;;;;21.89;50.56;101963.25;5075483;28;45278;-79
2021/08/22 20:09:21;;;;;;;;;6.50;5.25;;;;;21.87;51.06;101964.09;5075773;27;45326;-79
2021/08/22 20:11:47;;;;;;;;;3.50;3.50;;;;;21.81;50.71;101964.88;5076434;27;45548;-78
2021/08/22 20:14:13;;;;;;;;;8.00;5.50;;;;;21.78;51.24;101968.34;5076482;27;45481;-78
2021/08/22 20:16:38;;;;;;;;;5.00;5.00;;;;;21.73;51.60;101966.50;5077276;27;45380;-78
2021/08/22 20:19:04;;;;;;;;;5.25;5.00;;;;;21.70;51.52;101963.81;5078367;28;45337;-77
2021/08/22 20:21:30;;;;;;;;;5.25;4.25;;;;;21.68;51.36;101968.16;5078326;27;45669;-80
2021/08/22 20:23:56;;;;;;;;;6.25;5.00;;;;;21.65;51.80;101969.88;5077112;28;45393;-79
2021/08/22 20:26:22;;;;;;;;;5.50;5.25;;;;;21.66;51.58;101981.31;5076872;27;45816;-83
2021/08/22 20:28:47;;;;;;;;;6.00;4.25;;;;;21.62;52.05;101975.13;5076606;27;45887;-79
2021/08/22 20:31:15;;;;;;;;;6.50;4.50;;;;;21.59;52.14;101968.91;5076734;27;45286;-79
2021/08/22 20:33:41;;;;;;;;;5.75;5.75;;;;;21.55;52.03;101965.28;5077411;27;45475;-82
2021/08/22 20:36:07;;;;;;;;;3.50;3.50;;;;;21.53;52.16;101967.00;5077592;27;45492;-79
2021/08/22 20:38:33;;;;;;;;;5.00;5.00;;;;;21.50;52.67;101961.69;5091890;27;45813;-81
2021/08/22 20:40:59;;;;;;;;;7.00;5.75;;;;;21.47;52.05;101965.16;5077417;27;45265;-84
2021/08/22 20:43:24;;;;;;;;;5.50;4.75;;;;;21.44;52.87;101965.09;5076834;28;45441;-85
2021/08/22 20:45:50;;;;;;;;;7.50;7.50;;;;;21.41;52.78;101956.25;5076910;28;45477;-79
2021/08/22 20:48:16;;;;;;;;;7.75;7.25;;;;;21.35;53.10;101951.75;5075837;27;45802;-79
2021/08/22 20:50:41;;;;;;;;;4.00;4.00;;;;;21.32;52.84;101956.97;5076355;27;45378;-79
2021/08/22 20:53:10;;;;;;;;;4.50;4.50;;;;;21.29;53.20;101954.25;5076509;27;45444;-79
2021/08/22 20:55:37;;;;;;;;;7.00;6.00;;;;;21.25;53.39;101961.22;5076511;27;45627;-81
2021/08/22 20:58:02;;;;;;;;;5.00;4.00;;;;;21.24;53.57;101954.19;5076085;28;46083;-80
2021/08/22 21:00:28;;;;;;;;;5.00;5.00;;;;;21.21;54.01;101961.13;5076078;27;45342;-80
2021/08/22 21:02:56;;;;;;;;;6.00;6.00;;;;;21.17;53.92;101958.44;5076320;27;45424;-78
2021/08/22 21:05:23;;;;;;;;;6.00;5.00;;;;;21.15;53.71;101969.81;5076672;27;45267;-77
2021/08/22 21:07:52;;;;;;;;;5.00;5.00;;;;;21.13;53.85;101968.88;5074347;28;47779;-78
2021/08/22 21:10:24;;;;;;;;;8.50;6.50;;;;;21.02;54.13;101955.50;5074077;28;45552;-77
2021/08/22 21:12:49;;;;;;;;;5.00;5.00;;;;;21.08;54.36;101974.06;5075995;27;45862;-79
2021/08/22 21:15:20;;;;;;;;;5.75;5.75;;;;;21.00;54.27;101966.00;5075682;28;45539;-79
2021/08/22 21:17:46;;;;;;;;;5.00;5.00;;;;;21.00;54.77;101978.28;5074452;28;46239;-79
2021/08/22 21:20:17;;;;;;;;;7.50;6.50;;;;;20.95;55.08;101978.19;5110442;27;45302;-78
2021/08/22 21:22:43;;;;;;;;;4.50;3.00;;;;;20.93;55.14;101982.53;5080898;27;45427;-78
2021/08/22 21:25:09;;;;;;;;;7.50;6.00;;;;;20.92;55.22;101975.50;5080475;28;45456;-80
2021/08/22 21:27:34;;;;;;;;;5.00;4.25;;;;;20.91;55.27;101983.38;5080350;27;45452;-80
2021/08/22 21:30:00;;;;;;;;;6.00;6.00;;;;;20.92;55.21;101988.66;5081146;27;45444;-80
2021/08/22 21:32:29;;;;;;;;;7.00;7.00;;;;;20.90;55.62;101989.50;5079645;27;45317;-81
2021/08/22 21:34:54;;;;;;;;;5.50;4.50;;;;;20.85;55.63;101981.50;5079027;28;45500;-79
2021/08/22 21:37:20;;;;;;;;;7.25;5.75;;;;;20.83;55.22;101984.09;5078909;27;45716;-81
2021/08/22 21:39:45;;;;;;;;;5.25;5.00;;;;;20.83;56.03;101985.84;5078947;27;45361;-78
2021/08/22 21:42:11;;;;;;;;;5.50;5.50;;;;;20.82;55.87;101991.94;5079231;27;45303;-80
2021/08/22 21:44:42;;;;;;;;;5.50;5.50;;;;;20.80;55.87;101983.13;5079240;27;45616;-81
2021/08/22 21:47:08;;;;;;;;;5.00;4.00;;;;;20.78;56.06;101988.38;5078759;27;45946;-79
2021/08/22 21:49:33;;;;;;;;;8.75;5.75;;;;;20.73;56.12;101985.59;5078442;27;45351;-79
2021/08/22 21:51:59;;;;;;;;;4.25;4.25;;;;;20.70;55.61;101982.03;5079248;27;45188;-80
2021/08/22 21:54:26;;;;;;;;;6.25;6.25;;;;;20.70;56.26;101984.66;5077657;28;45438;-79
2021/08/22 21:56:52;;;;;;;;;5.25;5.00;;;;;20.67;56.31;101974.97;5078628;28;45453;-77
2021/08/22 21:59:18;;;;;;;;;6.25;6.25;;;;;20.69;55.88;101986.38;5078845;28;45436;-76
2021/08/22 22:01:43;;;;;;;;;5.50;5.00;;;;;20.66;56.30;101975.81;5079676;27;45400;-78
2021/08/22 22:04:09;;;;;;;;;6.75;4.75;;;;;20.65;56.50;101974.03;5078981;27;45342;-79
2021/08/22 22:06:34;;;;;;;;;5.50;5.50;;;;;20.62;56.82;101979.22;5078517;27;46020;-80
2021/08/22 22:09:00;;;;;;;;;7.00;6.00;;;;;20.59;56.87;101980.91;5078701;27;45287;-80
2021/08/22 22:11:26;;;;;;;;;5.00;5.00;;;;;20.57;56.94;101973.00;5078550;27;45501;-78
2021/08/22 22:13:51;;;;;;;;;5.75;5.75;;;;;20.53;56.56;101976.41;5078997;27;45523;-80
2021/08/22 22:16:19;;;;;;;;;6.00;5.00;;;;;20.52;57.09;101982.50;5078259;27;46179;-80
2021/08/22 22:18:45;;;;;;;;;5.50;5.00;;;;;20.50;57.45;101985.13;5078846;28;45307;-80
2021/08/22 22:21:10;;;;;;;;;6.25;6.25;;;;;20.50;57.70;101981.56;5079397;28;45359;-84
2021/08/22 22:23:36;;;;;;;;;9.50;6.50;;;;;20.51;57.77;101988.63;5078893;27;45309;-84
2021/08/22 22:26:02;;;;;;;;;5.75;5.50;;;;;20.50;57.43;101979.84;5078740;27;45985;-79
2021/08/22 22:28:27;;;;;;;;;5.75;5.75;;;;;20.46;57.38;101972.72;5076965;28;45547;-79
2021/08/22 22:30:53;;;;;;;;;6.25;6.25;;;;;20.45;58.02;101972.72;5078328;27;45417;-78
2021/08/22 22:33:19;;;;;;;;;7.75;6.00;;;;;20.44;57.52;101965.66;5078252;27;45329;-80
2021/08/22 22:35:45;;;;;;;;;8.25;6.25;;;;;20.46;57.59;101975.38;5076773;28;46890;-78
2021/08/22 22:38:10;;;;;;;;;8.50;6.25;;;;;20.47;57.67;101978.88;5078554;27;45353;-79
2021/08/22 22:40:39;;;;;;;;;10.75;8.25;;;;;20.47;57.95;101979.78;5077967;27;45341;-79
2021/08/22 22:43:05;;;;;;;;;7.75;6.00;;;;;20.45;57.87;101972.72;5078154;27;45643;-77
2021/08/22 22:45:30;;;;;;;;;9.50;5.75;;;;;20.40;57.89;101984.00;5077585;27;45769;-77
2021/08/22 22:47:56;;;;;;;;;6.25;6.25;;;;;20.38;58.22;101972.56;5077726;27;45417;-79
2021/08/22 22:50:22;;;;;;;;;5.50;5.50;;;;;20.41;58.01;101977.88;5077663;27;45298;-78
2021/08/22 22:53:00;;;;;;;;;8.00;6.75;;;;;20.41;57.93;101975.25;5078004;27;45485;-78
2021/08/22 22:55:26;;;;;;;;;6.00;5.75;;;;;20.41;58.29;101982.25;5110399;27;46702;-78
2021/08/22 22:57:52;;;;;;;;;6.50;5.75;;;;;20.45;58.66;101976.22;5077702;27;45277;-78
2021/08/22 23:00:17;;;;;;;;;6.75;5.00;;;;;20.48;58.13;101972.75;5077710;28;45276;-77
2021/08/22 23:02:43;;;;;;;;;6.00;4.00;;;;;20.48;58.52;101976.28;5078309;27;45172;-77
2021/08/22 23:05:08;;;;;;;;;8.25;6.25;;;;;20.50;58.70;101977.22;5077508;27;46167;-78
2021/08/22 23:07:34;;;;;;;;;5.50;4.00;;;;;20.55;58.60;101979.97;5077703;27;45181;-79
2021/08/22 23:10:00;;;;;;;;;7.00;5.50;;;;;20.54;57.83;101984.31;5077802;27;45251;-79
2021/08/22 23:12:25;;;;;;;;;9.00;8.00;;;;;20.52;58.37;101985.13;5077571;28;45418;-77
2021/08/22 23:14:51;;;;;;;;;4.00;4.00;;;;;20.54;58.49;101978.19;5077333;27;45305;-78
2021/08/22 23:17:17;;;;;;;;;4.50;4.50;;;;;20.55;58.39;101980.81;5077556;27;45321;-79
2021/08/22 23:19:42;;;;;;;;;7.50;5.25;;;;;20.59;58.10;101978.28;5078242;27;45377;-80
2021/08/22 23:22:08;;;;;;;;;4.75;4.00;;;;;20.56;58.30;101972.09;5077981;27;45436;-78
2021/08/22 23:24:34;;;;;;;;;7.75;7.00;;;;;20.53;58.03;101982.53;5077197;27;45380;-78
2021/08/22 23:26:59;;;;;;;;;6.25;5.00;;;;;20.53;58.43;101981.66;5077364;27;45334;-78
2021/08/22 23:29:25;;;;;;;;;5.75;5.75;;;;;20.55;58.47;101986.09;5077235;27;45338;-78
2021/08/22 23:31:57;;;;;;;;;5.50;5.50;;;;;20.56;58.80;101987.00;5077493;27;45452;-78
2021/08/22 23:34:27;;;;;;;;;5.00;5.00;;;;;20.52;58.36;101978.13;5075066;28;47915;-80
2021/08/22 23:36:53;;;;;;;;;6.00;6.00;;;;;20.48;58.69;101976.28;5075475;28;45268;-78
2021/08/22 23:39:18;;;;;;;;;4.25;3.50;;;;;20.49;58.91;101977.16;5076875;27;45254;-79
2021/08/22 23:41:44;;;;;;;;;3.25;3.25;;;;;20.52;58.82;101988.66;5076500;28;45849;-78
2021/08/22 23:44:10;;;;;;;;;4.75;4.25;;;;;20.53;58.26;101981.66;5076645;28;45404;-78
2021/08/22 23:46:35;;;;;;;;;4.00;4.00;;;;;20.55;58.91;101988.72;5076985;27;45315;-78
2021/08/22 23:49:01;;;;;;;;;3.50;3.50;;;;;20.59;58.77;101984.41;5077387;27;45238;-80
2021/08/22 23:51:27;;;;;;;;;6.00;4.25;;;;;20.61;58.61;101987.09;5077478;28;45492;-78
2021/08/22 23:53:53;;;;;;;;;4.00;3.50;;;;;20.62;58.44;101991.50;5077634;27;46023;-87
2021/08/22 23:56:18;;;;;;;;;5.50;4.75;;;;;20.62;58.07;101981.84;5077728;27;45330;-84
2021/08/22 23:58:47;;;;;;;;;3.50;3.50;;;;;20.67;58.67;101985.50;5079654;28;45437;-90
